sensor_id;sensor_type;location;lat;lon;timestamp;P1;durP1;ratioP1;P2;durP2;ratioP2
22019;SDS011;51298;53.362;-1.518;2023-07-22T00:02:05;1.50;;;0.85;;
22019;SDS011;51298;53.362;-1.518;2023-07-22T00:04:49;1.67;;;0.90;;
22019;SDS011;51298;53.362;-1.518;2023-07-22T00:07:34;2.35;;;1.00;;
22019;SDS011;51298;53.362;-1.518;2023-07-22T00:10:21;6.93;;;1.25;;
22019;SDS011;51298;53.362;-1.518;2023-07-22T00:13:05;2.65;;;0.88;;
22019;SDS011;51298;53.362;-1.518;2023-07-22T00:15:50;1.25;;;0.85;;
22019;SDS011;51298;53.362;-1.518;2023-07-22T00:18:34;1.38;;;0.75;;
22019;SDS011;51298;53.362;-1.518;2023-07-22T00:21:19;1.92;;;1.00;;
22019;SDS011;51298;53.362;-1.518;2023-07-22T00:24:03;1.50;;;0.70;;
22019;SDS011;51298;53.362;-1.518;2023-07-22T00:26:51;2.17;;;0.90;;
22019;SDS011;51298;53.362;-1.518;2023-07-22T00:29:36;2.03;;;0.95;;
22019;SDS011;51298;53.362;-1.518;2023-07-22T00:32:19;1.25;;;0.80;;
22019;SDS011;51298;53.362;-1.518;2023-07-22T00:35:04;1.95;;;0.98;;
22019;SDS011;51298;53.362;-1.518;2023-07-22T00:37:49;1.55;;;0.75;;
22019;SDS011;51298;53.362;-1.518;2023-07-22T00:40:33;2.78;;;1.10;;
22019;SDS011;51298;53.362;-1.518;2023-07-22T00:43:18;3.33;;;1.10;;
22019;SDS011;51298;53.362;-1.518;2023-07-22T00:46:05;1.75;;;0.90;;
22019;SDS011;51298;53.362;-1.518;2023-07-22T00:48:49;1.65;;;0.80;;
22019;SDS011;51298;53.362;-1.518;2023-07-22T00:51:37;1.38;;;0.88;;
22019;SDS011;51298;53.362;-1.518;2023-07-22T00:54:22;1.60;;;0.90;;
22019;SDS011;51298;53.362;-1.518;2023-07-22T00:57:07;4.30;;;0.98;;
22019;SDS011;51298;53.362;-1.518;2023-07-22T00:59:52;1.50;;;0.90;;
22019;SDS011;51298;53.362;-1.518;2023-07-22T01:02:37;1.80;;;1.00;;
22019;SDS011;51298;53.362;-1.518;2023-07-22T01:05:23;2.28;;;0.82;;
22019;SDS011;51298;53.362;-1.518;2023-07-22T01:08:09;3.22;;;1.52;;
22019;SDS011;51298;53.362;-1.518;2023-07-22T01:10:54;1.27;;;0.93;;
22019;SDS011;51298;53.362;-1.518;2023-07-22T01:13:38;1.67;;;1.00;;
22019;SDS011;51298;53.362;-1.518;2023-07-22T01:16:23;2.75;;;1.08;;
22019;SDS011;51298;53.362;-1.518;2023-07-22T01:19:09;3.42;;;0.90;;
22019;SDS011;51298;53.362;-1.518;2023-07-22T01:21:55;4.63;;;1.10;;
22019;SDS011;51298;53.362;-1.518;2023-07-22T01:24:40;2.10;;;1.10;;
22019;SDS011;51298;53.362;-1.518;2023-07-22T01:27:25;2.22;;;0.90;;
22019;SDS011;51298;53.362;-1.518;2023-07-22T01:30:09;3.42;;;1.00;;
22019;SDS011;51298;53.362;-1.518;2023-07-22T01:32:54;1.17;;;0.80;;
22019;SDS011;51298;53.362;-1.518;2023-07-22T01:35:38;2.00;;;1.00;;
22019;SDS011;51298;53.362;-1.518;2023-07-22T01:38:23;1.38;;;0.88;;
22019;SDS011;51298;53.362;-1.518;2023-07-22T01:41:07;1.15;;;0.82;;
22019;SDS011;51298;53.362;-1.518;2023-07-22T01:43:52;2.13;;;1.17;;
22019;SDS011;51298;53.362;-1.518;2023-07-22T01:46:36;4.45;;;1.15;;
22019;SDS011;51298;53.362;-1.518;2023-07-22T01:49:20;3.42;;;1.10;;
22019;SDS011;51298;53.362;-1.518;2023-07-22T01:52:04;2.70;;;1.10;;
22019;SDS011;51298;53.362;-1.518;2023-07-22T01:54:49;3.45;;;1.40;;
22019;SDS011;51298;53.362;-1.518;2023-07-22T01:57:33;1.85;;;1.10;;
22019;SDS011;51298;53.362;-1.518;2023-07-22T02:00:21;2.03;;;0.93;;
22019;SDS011;51298;53.362;-1.518;2023-07-22T02:03:05;5.10;;;1.23;;
22019;SDS011;51298;53.362;-1.518;2023-07-22T02:05:50;3.78;;;1.10;;
22019;SDS011;51298;53.362;-1.518;2023-07-22T02:08:34;2.05;;;1.10;;
22019;SDS011;51298;53.362;-1.518;2023-07-22T02:11:20;1.83;;;1.05;;
22019;SDS011;51298;53.362;-1.518;2023-07-22T02:14:04;1.95;;;0.88;;
22019;SDS011;51298;53.362;-1.518;2023-07-22T02:16:50;3.25;;;0.95;;
22019;SDS011;51298;53.362;-1.518;2023-07-22T02:19:34;3.30;;;0.82;;
22019;SDS011;51298;53.362;-1.518;2023-07-22T02:22:19;1.23;;;0.82;;
22019;SDS011;51298;53.362;-1.518;2023-07-22T02:25:03;1.38;;;0.93;;
22019;SDS011;51298;53.362;-1.518;2023-07-22T02:27:48;1.40;;;0.80;;
22019;SDS011;51298;53.362;-1.518;2023-07-22T02:30:35;2.08;;;0.90;;
22019;SDS011;51298;53.362;-1.518;2023-07-22T02:33:20;3.55;;;0.82;;
22019;SDS011;51298;53.362;-1.518;2023-07-22T02:36:10;3.50;;;0.80;;
22019;SDS011;51298;53.362;-1.518;2023-07-22T02:38:54;3.55;;;1.00;;
22019;SDS011;51298;53.362;-1.518;2023-07-22T02:41:39;2.42;;;0.82;;
22019;SDS011;51298;53.362;-1.518;2023-07-22T02:44:23;1.88;;;1.05;;
22019;SDS011;51298;53.362;-1.518;2023-07-22T02:47:07;2.70;;;1.00;;
22019;SDS011;51298;53.362;-1.518;2023-07-22T02:49:54;2.50;;;0.90;;
22019;SDS011;51298;53.362;-1.518;2023-07-22T02:52:38;1.90;;;0.80;;
22019;SDS011;51298;53.362;-1.518;2023-07-22T02:55:23;3.08;;;1.00;;
22019;SDS011;51298;53.362;-1.518;2023-07-22T02:58:07;1.63;;;0.80;;
22019;SDS011;51298;53.362;-1.518;2023-07-22T03:00:51;1.50;;;0.85;;
22019;SDS011;51298;53.362;-1.518;2023-07-22T03:03:36;1.70;;;0.98;;
22019;SDS011;51298;53.362;-1.518;2023-07-22T03:06:20;2.40;;;1.02;;
22019;SDS011;51298;53.362;-1.518;2023-07-22T03:09:05;3.53;;;0.90;;
22019;SDS011;51298;53.362;-1.518;2023-07-22T03:11:49;1.98;;;0.80;;
22019;SDS011;51298;53.362;-1.518;2023-07-22T03:14:34;0.60;;;0.60;;
22019;SDS011;51298;53.362;-1.518;2023-07-22T03:17:20;2.20;;;1.00;;
22019;SDS011;51298;53.362;-1.518;2023-07-22T03:20:05;1.58;;;0.82;;
22019;SDS011;51298;53.362;-1.518;2023-07-22T03:22:52;1.83;;;0.95;;
22019;SDS011;51298;53.362;-1.518;2023-07-22T03:25:38;3.80;;;1.02;;
22019;SDS011;51298;53.362;-1.518;2023-07-22T03:28:22;1.15;;;0.60;;
22019;SDS011;51298;53.362;-1.518;2023-07-22T03:31:07;2.80;;;0.70;;
22019;SDS011;51298;53.362;-1.518;2023-07-22T03:33:52;1.48;;;0.88;;
22019;SDS011;51298;53.362;-1.518;2023-07-22T03:36:36;1.23;;;0.68;;
22019;SDS011;51298;53.362;-1.518;2023-07-22T03:39:21;1.13;;;0.70;;
22019;SDS011;51298;53.362;-1.518;2023-07-22T03:42:05;1.08;;;0.60;;
22019;SDS011;51298;53.362;-1.518;2023-07-22T03:44:50;3.45;;;0.73;;
22019;SDS011;51298;53.362;-1.518;2023-07-22T03:47:33;0.50;;;0.50;;
22019;SDS011;51298;53.362;-1.518;2023-07-22T03:50:19;2.10;;;0.70;;
22019;SDS011;51298;53.362;-1.518;2023-07-22T03:53:03;1.52;;;0.70;;
22019;SDS011;51298;53.362;-1.518;2023-07-22T03:55:49;1.05;;;0.63;;
22019;SDS011;51298;53.362;-1.518;2023-07-22T03:58:33;2.42;;;0.60;;
22019;SDS011;51298;53.362;-1.518;2023-07-22T04:01:18;1.55;;;0.77;;
22019;SDS011;51298;53.362;-1.518;2023-07-22T04:04:05;2.88;;;0.70;;
22019;SDS011;51298;53.362;-1.518;2023-07-22T04:06:49;1.75;;;0.77;;
22019;SDS011;51298;53.362;-1.518;2023-07-22T04:09:33;1.77;;;0.93;;
22019;SDS011;51298;53.362;-1.518;2023-07-22T04:12:22;2.38;;;1.23;;
22019;SDS011;51298;53.362;-1.518;2023-07-22T04:15:06;6.32;;;1.10;;
22019;SDS011;51298;53.362;-1.518;2023-07-22T04:17:51;2.30;;;1.20;;
22019;SDS011;51298;53.362;-1.518;2023-07-22T04:20:34;2.33;;;1.15;;
22019;SDS011;51298;53.362;-1.518;2023-07-22T04:23:19;2.70;;;1.20;;
22019;SDS011;51298;53.362;-1.518;2023-07-22T04:26:03;3.28;;;1.10;;
22019;SDS011;51298;53.362;-1.518;2023-07-22T04:31:38;6.80;;;1.25;;
22019;SDS011;51298;53.362;-1.518;2023-07-22T04:34:23;3.42;;;1.27;;
22019;SDS011;51298;53.362;-1.518;2023-07-22T04:37:09;2.42;;;1.20;;
22019;SDS011;51298;53.362;-1.518;2023-07-22T04:39:54;3.35;;;1.48;;
22019;SDS011;51298;53.362;-1.518;2023-07-22T04:42:38;3.60;;;1.63;;
22019;SDS011;51298;53.362;-1.518;2023-07-22T04:45:23;6.80;;;1.35;;
22019;SDS011;51298;53.362;-1.518;2023-07-22T04:48:08;4.97;;;1.20;;
22019;SDS011;51298;53.362;-1.518;2023-07-22T04:50:52;2.75;;;1.42;;
22019;SDS011;51298;53.362;-1.518;2023-07-22T04:53:37;3.47;;;1.23;;
22019;SDS011;51298;53.362;-1.518;2023-07-22T04:56:21;6.70;;;1.20;;
22019;SDS011;51298;53.362;-1.518;2023-07-22T04:59:05;1.70;;;0.93;;
22019;SDS011;51298;53.362;-1.518;2023-07-22T05:01:49;3.90;;;1.30;;
22019;SDS011;51298;53.362;-1.518;2023-07-22T05:04:33;3.78;;;1.08;;
22019;SDS011;51298;53.362;-1.518;2023-07-22T05:07:19;3.40;;;1.30;;
22019;SDS011;51298;53.362;-1.518;2023-07-22T05:10:06;3.47;;;1.42;;
22019;SDS011;51298;53.362;-1.518;2023-07-22T05:12:56;3.55;;;1.30;;
22019;SDS011;51298;53.362;-1.518;2023-07-22T05:15:43;4.00;;;1.27;;
22019;SDS011;51298;53.362;-1.518;2023-07-22T05:18:27;4.90;;;1.75;;
22019;SDS011;51298;53.362;-1.518;2023-07-22T05:21:12;5.57;;;1.20;;
22019;SDS011;51298;53.362;-1.518;2023-07-22T05:23:56;3.15;;;1.17;;
22019;SDS011;51298;53.362;-1.518;2023-07-22T05:26:40;3.67;;;1.15;;
22019;SDS011;51298;53.362;-1.518;2023-07-22T05:29:24;2.85;;;1.30;;
22019;SDS011;51298;53.362;-1.518;2023-07-22T05:32:08;2.05;;;1.05;;
22019;SDS011;51298;53.362;-1.518;2023-07-22T05:34:54;5.25;;;1.13;;
22019;SDS011;51298;53.362;-1.518;2023-07-22T05:37:38;4.07;;;1.15;;
22019;SDS011;51298;53.362;-1.518;2023-07-22T05:40:22;2.45;;;1.00;;
22019;SDS011;51298;53.362;-1.518;2023-07-22T05:43:07;5.65;;;1.23;;
22019;SDS011;51298;53.362;-1.518;2023-07-22T05:45:51;4.47;;;1.33;;
22019;SDS011;51298;53.362;-1.518;2023-07-22T05:48:35;2.80;;;1.20;;
22019;SDS011;51298;53.362;-1.518;2023-07-22T05:51:19;2.47;;;1.33;;
22019;SDS011;51298;53.362;-1.518;2023-07-22T05:54:04;2.42;;;1.00;;
22019;SDS011;51298;53.362;-1.518;2023-07-22T05:56:51;5.72;;;1.25;;
22019;SDS011;51298;53.362;-1.518;2023-07-22T05:59:35;2.05;;;1.02;;
22019;SDS011;51298;53.362;-1.518;2023-07-22T06:02:20;3.33;;;1.00;;
22019;SDS011;51298;53.362;-1.518;2023-07-22T06:05:05;2.85;;;1.00;;
22019;SDS011;51298;53.362;-1.518;2023-07-22T06:07:49;2.33;;;0.98;;
22019;SDS011;51298;53.362;-1.518;2023-07-22T06:10:33;4.72;;;0.95;;
22019;SDS011;51298;53.362;-1.518;2023-07-22T06:13:18;1.88;;;0.93;;
22019;SDS011;51298;53.362;-1.518;2023-07-22T06:16:04;1.95;;;0.90;;
22019;SDS011;51298;53.362;-1.518;2023-07-22T06:18:49;2.40;;;1.10;;
22019;SDS011;51298;53.362;-1.518;2023-07-22T06:21:33;1.73;;;0.90;;
22019;SDS011;51298;53.362;-1.518;2023-07-22T06:24:17;6.80;;;1.42;;
22019;SDS011;51298;53.362;-1.518;2023-07-22T06:27:05;2.72;;;1.42;;
22019;SDS011;51298;53.362;-1.518;2023-07-22T06:29:49;3.53;;;1.20;;
22019;SDS011;51298;53.362;-1.518;2023-07-22T06:32:34;2.95;;;1.40;;
22019;SDS011;51298;53.362;-1.518;2023-07-22T06:35:20;4.43;;;2.00;;
22019;SDS011;51298;53.362;-1.518;2023-07-22T06:38:04;4.00;;;1.63;;
22019;SDS011;51298;53.362;-1.518;2023-07-22T06:40:49;3.55;;;1.67;;
22019;SDS011;51298;53.362;-1.518;2023-07-22T06:43:37;5.03;;;1.63;;
22019;SDS011;51298;53.362;-1.518;2023-07-22T06:46:21;3.05;;;1.50;;
22019;SDS011;51298;53.362;-1.518;2023-07-22T06:49:05;5.65;;;2.15;;
22019;SDS011;51298;53.362;-1.518;2023-07-22T06:51:50;3.42;;;1.73;;
22019;SDS011;51298;53.362;-1.518;2023-07-22T06:54:35;6.20;;;2.25;;
22019;SDS011;51298;53.362;-1.518;2023-07-22T06:57:19;4.78;;;1.88;;
22019;SDS011;51298;53.362;-1.518;2023-07-22T07:00:04;5.20;;;1.85;;
22019;SDS011;51298;53.362;-1.518;2023-07-22T07:02:49;4.53;;;2.15;;
22019;SDS011;51298;53.362;-1.518;2023-07-22T07:05:34;5.10;;;2.42;;
22019;SDS011;51298;53.362;-1.518;2023-07-22T07:08:19;4.38;;;2.13;;
22019;SDS011;51298;53.362;-1.518;2023-07-22T07:11:03;7.10;;;2.55;;
22019;SDS011;51298;53.362;-1.518;2023-07-22T07:13:47;5.88;;;2.58;;
22019;SDS011;51298;53.362;-1.518;2023-07-22T07:16:32;3.75;;;1.80;;
22019;SDS011;51298;53.362;-1.518;2023-07-22T07:19:17;4.82;;;1.92;;
22019;SDS011;51298;53.362;-1.518;2023-07-22T07:22:05;8.48;;;2.28;;
22019;SDS011;51298;53.362;-1.518;2023-07-22T07:24:49;6.95;;;1.95;;
22019;SDS011;51298;53.362;-1.518;2023-07-22T07:27:33;5.65;;;2.00;;
22019;SDS011;51298;53.362;-1.518;2023-07-22T07:30:18;4.00;;;2.03;;
22019;SDS011;51298;53.362;-1.518;2023-07-22T07:33:05;6.90;;;2.15;;
22019;SDS011;51298;53.362;-1.518;2023-07-22T07:35:49;3.22;;;1.60;;
22019;SDS011;51298;53.362;-1.518;2023-07-22T07:38:34;3.38;;;1.63;;
22019;SDS011;51298;53.362;-1.518;2023-07-22T07:41:21;4.43;;;1.60;;
22019;SDS011;51298;53.362;-1.518;2023-07-22T07:44:05;3.55;;;1.70;;
22019;SDS011;51298;53.362;-1.518;2023-07-22T07:46:50;3.30;;;1.73;;
22019;SDS011;51298;53.362;-1.518;2023-07-22T07:49:34;3.47;;;1.50;;
22019;SDS011;51298;53.362;-1.518;2023-07-22T07:52:19;2.88;;;1.30;;
22019;SDS011;51298;53.362;-1.518;2023-07-22T07:55:04;2.15;;;1.05;;
22019;SDS011;51298;53.362;-1.518;2023-07-22T07:57:51;3.00;;;1.13;;
22019;SDS011;51298;53.362;-1.518;2023-07-22T08:00:35;3.47;;;1.30;;
22019;SDS011;51298;53.362;-1.518;2023-07-22T08:03:19;2.15;;;1.00;;
22019;SDS011;51298;53.362;-1.518;2023-07-22T08:06:04;2.03;;;0.88;;
22019;SDS011;51298;53.362;-1.518;2023-07-22T08:08:50;3.88;;;1.30;;
22019;SDS011;51298;53.362;-1.518;2023-07-22T08:11:35;1.88;;;1.02;;
22019;SDS011;51298;53.362;-1.518;2023-07-22T08:14:22;2.38;;;1.00;;
22019;SDS011;51298;53.362;-1.518;2023-07-22T08:17:06;2.83;;;1.10;;
22019;SDS011;51298;53.362;-1.518;2023-07-22T08:19:51;3.30;;;1.30;;
22019;SDS011;51298;53.362;-1.518;2023-07-22T08:22:35;2.75;;;0.90;;
22019;SDS011;51298;53.362;-1.518;2023-07-22T08:25:19;2.28;;;1.08;;
22019;SDS011;51298;53.362;-1.518;2023-07-22T08:28:04;2.30;;;1.00;;
22019;SDS011;51298;53.362;-1.518;2023-07-22T08:30:48;1.92;;;0.93;;
22019;SDS011;51298;53.362;-1.518;2023-07-22T08:33:39;8.02;;;0.80;;
22019;SDS011;51298;53.362;-1.518;2023-07-22T08:36:23;3.53;;;1.00;;
22019;SDS011;51298;53.362;-1.518;2023-07-22T08:39:08;1.33;;;0.75;;
22019;SDS011;51298;53.362;-1.518;2023-07-22T08:41:52;5.57;;;0.90;;
22019;SDS011;51298;53.362;-1.518;2023-07-22T08:44:38;2.67;;;1.27;;
22019;SDS011;51298;53.362;-1.518;2023-07-22T08:47:28;1.90;;;0.70;;
22019;SDS011;51298;53.362;-1.518;2023-07-22T08:50:16;1.63;;;0.70;;
22019;SDS011;51298;53.362;-1.518;2023-07-22T08:53:05;1.27;;;0.80;;
22019;SDS011;51298;53.362;-1.518;2023-07-22T08:55:49;2.08;;;0.80;;
22019;SDS011;51298;53.362;-1.518;2023-07-22T08:58:34;3.25;;;1.00;;
22019;SDS011;51298;53.362;-1.518;2023-07-22T09:01:19;1.88;;;0.90;;
22019;SDS011;51298;53.362;-1.518;2023-07-22T09:04:05;2.05;;;1.00;;
22019;SDS011;51298;53.362;-1.518;2023-07-22T09:06:49;1.95;;;0.93;;
22019;SDS011;51298;53.362;-1.518;2023-07-22T09:09:34;1.92;;;0.85;;
22019;SDS011;51298;53.362;-1.518;2023-07-22T09:12:20;1.30;;;0.70;;
22019;SDS011;51298;53.362;-1.518;2023-07-22T09:15:05;7.05;;;1.23;;
22019;SDS011;51298;53.362;-1.518;2023-07-22T09:17:53;2.25;;;1.00;;
22019;SDS011;51298;53.362;-1.518;2023-07-22T09:20:37;1.00;;;0.60;;
22019;SDS011;51298;53.362;-1.518;2023-07-22T09:23:35;2.05;;;0.90;;
22019;SDS011;51298;53.362;-1.518;2023-07-22T09:26:20;2.35;;;0.82;;
22019;SDS011;51298;53.362;-1.518;2023-07-22T09:29:05;1.77;;;0.70;;
22019;SDS011;51298;53.362;-1.518;2023-07-22T09:31:50;2.58;;;1.00;;
22019;SDS011;51298;53.362;-1.518;2023-07-22T09:34:36;1.45;;;0.85;;
22019;SDS011;51298;53.362;-1.518;2023-07-22T09:37:20;1.30;;;0.75;;
22019;SDS011;51298;53.362;-1.518;2023-07-22T09:40:15;1.58;;;0.82;;
22019;SDS011;51298;53.362;-1.518;2023-07-22T09:43:01;3.50;;;1.00;;
22019;SDS011;51298;53.362;-1.518;2023-07-22T09:45:47;1.90;;;0.98;;
22019;SDS011;51298;53.362;-1.518;2023-07-22T09:48:40;6.68;;;1.13;;
22019;SDS011;51298;53.362;-1.518;2023-07-22T09:51:24;2.58;;;1.00;;
22019;SDS011;51298;53.362;-1.518;2023-07-22T09:54:08;1.23;;;0.68;;
22019;SDS011;51298;53.362;-1.518;2023-07-22T09:56:53;1.85;;;0.90;;
22019;SDS011;51298;53.362;-1.518;2023-07-22T09:59:37;2.30;;;0.80;;
22019;SDS011;51298;53.362;-1.518;2023-07-22T10:02:21;3.50;;;1.25;;
22019;SDS011;51298;53.362;-1.518;2023-07-22T10:05:06;2.03;;;0.90;;
22019;SDS011;51298;53.362;-1.518;2023-07-22T10:07:53;1.30;;;0.80;;
22019;SDS011;51298;53.362;-1.518;2023-07-22T10:10:38;4.95;;;0.98;;
22019;SDS011;51298;53.362;-1.518;2023-07-22T10:13:23;4.72;;;1.08;;
22019;SDS011;51298;53.362;-1.518;2023-07-22T10:16:08;1.80;;;0.80;;
22019;SDS011;51298;53.362;-1.518;2023-07-22T10:18:53;1.45;;;0.68;;
22019;SDS011;51298;53.362;-1.518;2023-07-22T10:21:38;2.22;;;1.15;;
22019;SDS011;51298;53.362;-1.518;2023-07-22T10:24:23;2.13;;;1.02;;
22019;SDS011;51298;53.362;-1.518;2023-07-22T10:27:08;2.70;;;1.00;;
22019;SDS011;51298;53.362;-1.518;2023-07-22T10:29:53;4.03;;;1.10;;
22019;SDS011;51298;53.362;-1.518;2023-07-22T10:32:39;2.75;;;1.02;;
22019;SDS011;51298;53.362;-1.518;2023-07-22T10:38:16;1.88;;;0.70;;
22019;SDS011;51298;53.362;-1.518;2023-07-22T10:41:00;3.75;;;0.90;;
22019;SDS011;51298;53.362;-1.518;2023-07-22T10:44:02;2.20;;;0.90;;
22019;SDS011;51298;53.362;-1.518;2023-07-22T10:46:56;1.75;;;1.00;;
22019;SDS011;51298;53.362;-1.518;2023-07-22T10:49:48;2.28;;;0.95;;
22019;SDS011;51298;53.362;-1.518;2023-07-22T10:52:43;1.90;;;0.90;;
22019;SDS011;51298;53.362;-1.518;2023-07-22T10:55:28;2.30;;;0.88;;
22019;SDS011;51298;53.362;-1.518;2023-07-22T10:58:12;3.15;;;0.98;;
22019;SDS011;51298;53.362;-1.518;2023-07-22T11:00:56;1.60;;;0.90;;
22019;SDS011;51298;53.362;-1.518;2023-07-22T11:07:04;2.72;;;1.10;;
22019;SDS011;51298;53.362;-1.518;2023-07-22T11:09:50;3.58;;;1.08;;
22019;SDS011;51298;53.362;-1.518;2023-07-22T11:12:34;2.53;;;0.90;;
22019;SDS011;51298;53.362;-1.518;2023-07-22T11:15:19;2.30;;;0.95;;
22019;SDS011;51298;53.362;-1.518;2023-07-22T11:18:03;2.63;;;0.90;;
22019;SDS011;51298;53.362;-1.518;2023-07-22T11:20:52;2.33;;;1.10;;
22019;SDS011;51298;53.362;-1.518;2023-07-22T11:23:37;4.13;;;1.30;;
22019;SDS011;51298;53.362;-1.518;2023-07-22T11:26:21;3.38;;;1.23;;
22019;SDS011;51298;53.362;-1.518;2023-07-22T11:29:07;1.60;;;0.95;;
22019;SDS011;51298;53.362;-1.518;2023-07-22T11:31:52;1.83;;;0.90;;
22019;SDS011;51298;53.362;-1.518;2023-07-22T11:34:37;1.98;;;1.20;;
22019;SDS011;51298;53.362;-1.518;2023-07-22T11:37:24;2.15;;;1.23;;
22019;SDS011;51298;53.362;-1.518;2023-07-22T11:40:11;2.83;;;1.08;;
22019;SDS011;51298;53.362;-1.518;2023-07-22T11:42:56;2.85;;;1.10;;
22019;SDS011;51298;53.362;-1.518;2023-07-22T11:45:40;2.95;;;1.10;;
22019;SDS011;51298;53.362;-1.518;2023-07-22T11:48:25;1.55;;;0.88;;
22019;SDS011;51298;53.362;-1.518;2023-07-22T11:51:09;2.47;;;1.02;;
22019;SDS011;51298;53.362;-1.518;2023-07-22T11:53:54;1.77;;;1.00;;
22019;SDS011;51298;53.362;-1.518;2023-07-22T11:56:39;2.80;;;1.20;;
22019;SDS011;51298;53.362;-1.518;2023-07-22T11:59:34;1.88;;;1.00;;
22019;SDS011;51298;53.362;-1.518;2023-07-22T12:02:35;2.47;;;1.15;;
22019;SDS011;51298;53.362;-1.518;2023-07-22T12:05:21;2.25;;;1.10;;
22019;SDS011;51298;53.362;-1.518;2023-07-22T12:08:05;2.08;;;1.10;;
22019;SDS011;51298;53.362;-1.518;2023-07-22T12:10:59;2.53;;;1.20;;
22019;SDS011;51298;53.362;-1.518;2023-07-22T12:13:44;3.72;;;1.10;;
22019;SDS011;51298;53.362;-1.518;2023-07-22T12:16:34;2.63;;;1.30;;
22019;SDS011;51298;53.362;-1.518;2023-07-22T12:19:19;2.08;;;1.13;;
22019;SDS011;51298;53.362;-1.518;2023-07-22T12:22:03;2.67;;;1.15;;
22019;SDS011;51298;53.362;-1.518;2023-07-22T12:24:50;2.58;;;1.23;;
22019;SDS011;51298;53.362;-1.518;2023-07-22T12:27:34;2.60;;;1.50;;
22019;SDS011;51298;53.362;-1.518;2023-07-22T12:30:19;2.60;;;1.20;;
22019;SDS011;51298;53.362;-1.518;2023-07-22T12:33:03;2.88;;;1.20;;
22019;SDS011;51298;53.362;-1.518;2023-07-22T12:35:48;2.75;;;1.30;;
22019;SDS011;51298;53.362;-1.518;2023-07-22T12:38:39;2.50;;;1.17;;
22019;SDS011;51298;53.362;-1.518;2023-07-22T12:41:24;1.58;;;0.90;;
22019;SDS011;51298;53.362;-1.518;2023-07-22T12:44:08;3.40;;;1.08;;
22019;SDS011;51298;53.362;-1.518;2023-07-22T12:46:52;2.33;;;0.90;;
22019;SDS011;51298;53.362;-1.518;2023-07-22T12:49:37;2.63;;;0.80;;
22019;SDS011;51298;53.362;-1.518;2023-07-22T12:52:21;2.22;;;1.20;;
22019;SDS011;51298;53.362;-1.518;2023-07-22T12:55:06;1.58;;;0.90;;
22019;SDS011;51298;53.362;-1.518;2023-07-22T12:57:50;3.58;;;0.95;;
22019;SDS011;51298;53.362;-1.518;2023-07-22T13:00:35;3.05;;;1.20;;
22019;SDS011;51298;53.362;-1.518;2023-07-22T13:03:19;2.35;;;1.10;;
22019;SDS011;51298;53.362;-1.518;2023-07-22T13:06:04;3.22;;;1.45;;
22019;SDS011;51298;53.362;-1.518;2023-07-22T13:08:51;2.97;;;1.00;;
22019;SDS011;51298;53.362;-1.518;2023-07-22T13:11:35;3.70;;;1.52;;
22019;SDS011;51298;53.362;-1.518;2023-07-22T13:14:20;2.13;;;1.27;;
22019;SDS011;51298;53.362;-1.518;2023-07-22T13:17:04;2.08;;;1.00;;
22019;SDS011;51298;53.362;-1.518;2023-07-22T13:19:49;2.05;;;0.93;;
22019;SDS011;51298;53.362;-1.518;2023-07-22T13:22:33;1.48;;;0.90;;
22019;SDS011;51298;53.362;-1.518;2023-07-22T13:25:17;2.10;;;1.20;;
22019;SDS011;51298;53.362;-1.518;2023-07-22T13:28:01;4.15;;;1.33;;
22019;SDS011;51298;53.362;-1.518;2023-07-22T13:30:45;1.92;;;0.90;;
22019;SDS011;51298;53.362;-1.518;2023-07-22T13:33:30;2.63;;;1.33;;
22019;SDS011;51298;53.362;-1.518;2023-07-22T13:36:14;3.30;;;1.02;;
22019;SDS011;51298;53.362;-1.518;2023-07-22T13:38:58;4.63;;;1.20;;
22019;SDS011;51298;53.362;-1.518;2023-07-22T13:41:42;1.45;;;0.80;;
22019;SDS011;51298;53.362;-1.518;2023-07-22T13:44:27;7.03;;;1.60;;
22019;SDS011;51298;53.362;-1.518;2023-07-22T13:47:11;1.90;;;0.90;;
22019;SDS011;51298;53.362;-1.518;2023-07-22T13:49:55;1.35;;;0.70;;
22019;SDS011;51298;53.362;-1.518;2023-07-22T13:52:39;1.02;;;0.60;;
22019;SDS011;51298;53.362;-1.518;2023-07-22T13:55:24;2.33;;;0.80;;
22019;SDS011;51298;53.362;-1.518;2023-07-22T13:58:08;1.42;;;0.60;;
22019;SDS011;51298;53.362;-1.518;2023-07-22T14:00:52;1.23;;;0.60;;
22019;SDS011;51298;53.362;-1.518;2023-07-22T14:03:36;2.03;;;1.02;;
22019;SDS011;51298;53.362;-1.518;2023-07-22T14:06:21;2.25;;;0.82;;
22019;SDS011;51298;53.362;-1.518;2023-07-22T14:09:08;0.77;;;0.57;;
22019;SDS011;51298;53.362;-1.518;2023-07-22T14:11:53;0.85;;;0.52;;
22019;SDS011;51298;53.362;-1.518;2023-07-22T14:14:37;0.75;;;0.50;;
22019;SDS011;51298;53.362;-1.518;2023-07-22T14:17:22;0.68;;;0.50;;
22019;SDS011;51298;53.362;-1.518;2023-07-22T14:20:06;0.68;;;0.40;;
22019;SDS011;51298;53.362;-1.518;2023-07-22T14:22:51;1.05;;;0.57;;
22019;SDS011;51298;53.362;-1.518;2023-07-22T14:25:35;1.13;;;0.40;;
22019;SDS011;51298;53.362;-1.518;2023-07-22T14:28:19;1.27;;;0.60;;
22019;SDS011;51298;53.362;-1.518;2023-07-22T14:31:04;1.35;;;0.50;;
22019;SDS011;51298;53.362;-1.518;2023-07-22T14:33:49;1.05;;;0.63;;
22019;SDS011;51298;53.362;-1.518;2023-07-22T14:36:34;0.30;;;0.28;;
22019;SDS011;51298;53.362;-1.518;2023-07-22T14:39:19;1.27;;;0.55;;
22019;SDS011;51298;53.362;-1.518;2023-07-22T14:42:03;0.50;;;0.40;;
22019;SDS011;51298;53.362;-1.518;2023-07-22T14:44:47;0.80;;;0.40;;
22019;SDS011;51298;53.362;-1.518;2023-07-22T14:47:32;4.13;;;0.52;;
22019;SDS011;51298;53.362;-1.518;2023-07-22T14:50:16;2.67;;;0.60;;
22019;SDS011;51298;53.362;-1.518;2023-07-22T14:53:01;0.57;;;0.40;;
22019;SDS011;51298;53.362;-1.518;2023-07-22T14:55:45;1.38;;;0.50;;
22019;SDS011;51298;53.362;-1.518;2023-07-22T14:58:30;0.30;;;0.30;;
22019;SDS011;51298;53.362;-1.518;2023-07-22T15:01:14;0.28;;;0.20;;
22019;SDS011;51298;53.362;-1.518;2023-07-22T15:03:59;0.68;;;0.40;;
22019;SDS011;51298;53.362;-1.518;2023-07-22T15:06:43;0.25;;;0.20;;
22019;SDS011;51298;53.362;-1.518;2023-07-22T15:09:27;0.28;;;0.20;;
22019;SDS011;51298;53.362;-1.518;2023-07-22T15:12:12;0.30;;;0.30;;
22019;SDS011;51298;53.362;-1.518;2023-07-22T15:14:58;0.45;;;0.20;;
22019;SDS011;51298;53.362;-1.518;2023-07-22T15:17:44;0.65;;;0.20;;
22019;SDS011;51298;53.362;-1.518;2023-07-22T15:20:29;0.20;;;0.20;;
22019;SDS011;51298;53.362;-1.518;2023-07-22T15:23:13;0.25;;;0.17;;
22019;SDS011;51298;53.362;-1.518;2023-07-22T15:25:57;0.20;;;0.20;;
22019;SDS011;51298;53.362;-1.518;2023-07-22T15:28:41;0.30;;;0.17;;
22019;SDS011;51298;53.362;-1.518;2023-07-22T15:31:26;0.10;;;0.10;;
22019;SDS011;51298;53.362;-1.518;2023-07-22T15:34:11;0.28;;;0.20;;
22019;SDS011;51298;53.362;-1.518;2023-07-22T15:36:55;0.10;;;0.10;;
22019;SDS011;51298;53.362;-1.518;2023-07-22T15:39:39;0.63;;;0.30;;
22019;SDS011;51298;53.362;-1.518;2023-07-22T15:42:23;0.20;;;0.20;;
22019;SDS011;51298;53.362;-1.518;2023-07-22T15:45:07;0.75;;;0.38;;
22019;SDS011;51298;53.362;-1.518;2023-07-22T15:47:52;0.30;;;0.20;;
22019;SDS011;51298;53.362;-1.518;2023-07-22T15:50:36;0.20;;;0.20;;
22019;SDS011;51298;53.362;-1.518;2023-07-22T15:53:21;0.20;;;0.20;;
22019;SDS011;51298;53.362;-1.518;2023-07-22T15:56:06;0.35;;;0.30;;
22019;SDS011;51298;53.362;-1.518;2023-07-22T15:58:53;0.32;;;0.22;;
22019;SDS011;51298;53.362;-1.518;2023-07-22T16:01:37;0.60;;;0.30;;
22019;SDS011;51298;53.362;-1.518;2023-07-22T16:04:22;2.42;;;0.30;;
22019;SDS011;51298;53.362;-1.518;2023-07-22T16:07:07;0.30;;;0.20;;
22019;SDS011;51298;53.362;-1.518;2023-07-22T16:09:52;0.45;;;0.30;;
22019;SDS011;51298;53.362;-1.518;2023-07-22T16:12:36;0.38;;;0.25;;
22019;SDS011;51298;53.362;-1.518;2023-07-22T16:15:21;0.32;;;0.30;;
22019;SDS011;51298;53.362;-1.518;2023-07-22T16:18:05;0.55;;;0.30;;
22019;SDS011;51298;53.362;-1.518;2023-07-22T16:20:49;0.30;;;0.20;;
22019;SDS011;51298;53.362;-1.518;2023-07-22T16:23:33;1.08;;;0.32;;
22019;SDS011;51298;53.362;-1.518;2023-07-22T16:26:19;1.05;;;0.52;;
22019;SDS011;51298;53.362;-1.518;2023-07-22T16:29:04;0.52;;;0.43;;